sensor_id;sensor_type;location;lat;lon;timestamp;P1;durP1;ratioP1;P2;durP2;ratioP2
57047;SDS011;42934;54.294;18.598;2023-09-30T00:01:22;13.65;;;12.07;;
57047;SDS011;42934;54.294;18.598;2023-09-30T00:03:51;14.52;;;12.35;;
57047;SDS011;42934;54.294;18.598;2023-09-30T00:06:20;14.83;;;12.43;;
57047;SDS011;42934;54.294;18.598;2023-09-30T00:08:50;15.93;;;13.10;;
57047;SDS011;42934;54.294;18.598;2023-09-30T00:11:20;17.17;;;13.18;;
57047;SDS011;42934;54.294;18.598;2023-09-30T00:13:49;14.40;;;12.77;;
57047;SDS011;42934;54.294;18.598;2023-09-30T00:16:18;16.00;;;12.80;;
57047;SDS011;42934;54.294;18.598;2023-09-30T00:18:47;16.08;;;12.73;;
57047;SDS011;42934;54.294;18.598;2023-09-30T00:21:16;13.75;;;11.77;;
57047;SDS011;42934;54.294;18.598;2023-09-30T00:23:45;13.50;;;12.10;;
57047;SDS011;42934;54.294;18.598;2023-09-30T00:26:15;16.75;;;12.80;;
57047;SDS011;42934;54.294;18.598;2023-09-30T00:28:46;13.77;;;11.93;;
57047;SDS011;42934;54.294;18.598;2023-09-30T00:31:15;14.43;;;11.75;;
57047;SDS011;42934;54.294;18.598;2023-09-30T00:33:44;15.27;;;12.13;;
57047;SDS011;42934;54.294;18.598;2023-09-30T00:36:13;14.80;;;12.18;;
57047;SDS011;42934;54.294;18.598;2023-09-30T00:38:44;13.00;;;11.65;;
57047;SDS011;42934;54.294;18.598;2023-09-30T00:41:13;15.70;;;12.02;;
57047;SDS011;42934;54.294;18.598;2023-09-30T00:43:45;15.93;;;11.43;;
57047;SDS011;42934;54.294;18.598;2023-09-30T00:46:17;13.60;;;10.30;;
57047;SDS011;42934;54.294;18.598;2023-09-30T00:51:25;14.98;;;10.95;;
57047;SDS011;42934;54.294;18.598;2023-09-30T00:53:56;13.38;;;11.15;;
57047;SDS011;42934;54.294;18.598;2023-09-30T00:56:29;15.50;;;11.48;;
57047;SDS011;42934;54.294;18.598;2023-09-30T00:58:58;13.63;;;11.13;;
57047;SDS011;42934;54.294;18.598;2023-09-30T01:01:28;16.63;;;11.10;;
57047;SDS011;42934;54.294;18.598;2023-09-30T01:03:57;13.30;;;11.90;;
57047;SDS011;42934;54.294;18.598;2023-09-30T01:06:27;13.13;;;11.25;;
57047;SDS011;42934;54.294;18.598;2023-09-30T01:08:56;14.48;;;11.27;;
57047;SDS011;42934;54.294;18.598;2023-09-30T01:13:57;14.00;;;11.77;;
57047;SDS011;42934;54.294;18.598;2023-09-30T01:16:26;12.13;;;10.85;;
57047;SDS011;42934;54.294;18.598;2023-09-30T01:18:55;20.10;;;11.73;;
57047;SDS011;42934;54.294;18.598;2023-09-30T01:21:24;15.10;;;12.10;;
57047;SDS011;42934;54.294;18.598;2023-09-30T01:23:56;15.40;;;12.20;;
57047;SDS011;42934;54.294;18.598;2023-09-30T01:26:25;17.67;;;11.98;;
57047;SDS011;42934;54.294;18.598;2023-09-30T01:28:54;15.52;;;11.77;;
57047;SDS011;42934;54.294;18.598;2023-09-30T01:31:23;15.05;;;12.05;;
57047;SDS011;42934;54.294;18.598;2023-09-30T01:33:53;13.60;;;12.05;;
57047;SDS011;42934;54.294;18.598;2023-09-30T01:36:23;16.02;;;11.85;;
57047;SDS011;42934;54.294;18.598;2023-09-30T01:38:52;14.82;;;11.73;;
57047;SDS011;42934;54.294;18.598;2023-09-30T01:41:23;14.95;;;11.75;;
57047;SDS011;42934;54.294;18.598;2023-09-30T01:43:52;12.13;;;10.82;;
57047;SDS011;42934;54.294;18.598;2023-09-30T01:46:21;16.00;;;10.85;;
57047;SDS011;42934;54.294;18.598;2023-09-30T01:48:50;12.38;;;11.07;;
57047;SDS011;42934;54.294;18.598;2023-09-30T01:51:19;12.10;;;10.55;;
57047;SDS011;42934;54.294;18.598;2023-09-30T01:53:49;12.68;;;11.13;;
57047;SDS011;42934;54.294;18.598;2023-09-30T01:56:18;14.13;;;11.23;;
57047;SDS011;42934;54.294;18.598;2023-09-30T01:58:49;13.27;;;10.80;;
57047;SDS011;42934;54.294;18.598;2023-09-30T02:01:18;12.32;;;11.02;;
57047;SDS011;42934;54.294;18.598;2023-09-30T02:03:47;12.65;;;10.82;;
57047;SDS011;42934;54.294;18.598;2023-09-30T02:06:16;12.00;;;10.80;;
57047;SDS011;42934;54.294;18.598;2023-09-30T02:08:45;11.88;;;10.63;;
57047;SDS011;42934;54.294;18.598;2023-09-30T02:11:14;15.63;;;11.18;;
57047;SDS011;42934;54.294;18.598;2023-09-30T02:13:43;12.10;;;10.82;;
57047;SDS011;42934;54.294;18.598;2023-09-30T02:16:13;14.23;;;11.70;;
57047;SDS011;42934;54.294;18.598;2023-09-30T02:18:43;18.05;;;11.95;;
57047;SDS011;42934;54.294;18.598;2023-09-30T02:21:12;14.82;;;12.38;;
57047;SDS011;42934;54.294;18.598;2023-09-30T02:23:41;15.17;;;12.83;;
57047;SDS011;42934;54.294;18.598;2023-09-30T02:26:14;17.48;;;12.90;;
57047;SDS011;42934;54.294;18.598;2023-09-30T02:28:43;15.97;;;13.40;;
57047;SDS011;42934;54.294;18.598;2023-09-30T02:31:14;16.67;;;13.93;;
57047;SDS011;42934;54.294;18.598;2023-09-30T02:33:44;16.13;;;13.25;;
57047;SDS011;42934;54.294;18.598;2023-09-30T02:36:13;16.85;;;14.07;;
57047;SDS011;42934;54.294;18.598;2023-09-30T02:38:42;15.83;;;13.83;;
57047;SDS011;42934;54.294;18.598;2023-09-30T02:41:13;22.98;;;14.50;;
57047;SDS011;42934;54.294;18.598;2023-09-30T02:43:44;16.40;;;14.02;;
57047;SDS011;42934;54.294;18.598;2023-09-30T02:46:14;17.58;;;14.55;;
57047;SDS011;42934;54.294;18.598;2023-09-30T02:48:44;17.17;;;14.15;;
57047;SDS011;42934;54.294;18.598;2023-09-30T02:51:12;17.13;;;14.02;;
57047;SDS011;42934;54.294;18.598;2023-09-30T02:53:42;15.15;;;13.48;;
57047;SDS011;42934;54.294;18.598;2023-09-30T02:56:10;16.52;;;13.30;;
57047;SDS011;42934;54.294;18.598;2023-09-30T02:58:40;20.38;;;13.85;;
57047;SDS011;42934;54.294;18.598;2023-09-30T03:01:09;17.98;;;13.45;;
57047;SDS011;42934;54.294;18.598;2023-09-30T03:03:45;15.70;;;13.32;;
57047;SDS011;42934;54.294;18.598;2023-09-30T03:06:14;16.27;;;13.02;;
57047;SDS011;42934;54.294;18.598;2023-09-30T03:08:45;17.90;;;12.98;;
57047;SDS011;42934;54.294;18.598;2023-09-30T03:11:14;16.23;;;12.95;;
57047;SDS011;42934;54.294;18.598;2023-09-30T03:13:43;17.40;;;13.45;;
57047;SDS011;42934;54.294;18.598;2023-09-30T03:16:12;18.20;;;12.00;;
57047;SDS011;42934;54.294;18.598;2023-09-30T03:18:43;17.13;;;12.32;;
57047;SDS011;42934;54.294;18.598;2023-09-30T03:21:15;16.33;;;11.98;;
57047;SDS011;42934;54.294;18.598;2023-09-30T03:23:44;15.55;;;12.00;;
57047;SDS011;42934;54.294;18.598;2023-09-30T03:26:13;16.27;;;11.45;;
57047;SDS011;42934;54.294;18.598;2023-09-30T03:28:42;16.48;;;11.48;;
57047;SDS011;42934;54.294;18.598;2023-09-30T03:33:47;13.45;;;10.80;;
57047;SDS011;42934;54.294;18.598;2023-09-30T03:36:16;12.60;;;10.68;;
57047;SDS011;42934;54.294;18.598;2023-09-30T03:38:45;16.98;;;10.52;;
57047;SDS011;42934;54.294;18.598;2023-09-30T03:41:14;14.43;;;10.15;;
57047;SDS011;42934;54.294;18.598;2023-09-30T03:43:46;17.45;;;10.60;;
57047;SDS011;42934;54.294;18.598;2023-09-30T03:46:17;14.23;;;10.15;;
57047;SDS011;42934;54.294;18.598;2023-09-30T03:48:47;13.30;;;9.18;;
57047;SDS011;42934;54.294;18.598;2023-09-30T03:51:15;10.60;;;6.72;;
57047;SDS011;42934;54.294;18.598;2023-09-30T03:53:45;7.72;;;3.53;;
57047;SDS011;42934;54.294;18.598;2023-09-30T03:56:14;5.55;;;2.42;;
57047;SDS011;42934;54.294;18.598;2023-09-30T03:58:45;4.50;;;2.40;;
57047;SDS011;42934;54.294;18.598;2023-09-30T04:03:47;5.97;;;2.40;;
57047;SDS011;42934;54.294;18.598;2023-09-30T04:06:16;3.47;;;2.10;;
57047;SDS011;42934;54.294;18.598;2023-09-30T04:08:45;6.33;;;2.10;;
57047;SDS011;42934;54.294;18.598;2023-09-30T04:11:14;2.47;;;1.73;;
57047;SDS011;42934;54.294;18.598;2023-09-30T04:13:45;3.50;;;1.77;;
57047;SDS011;42934;54.294;18.598;2023-09-30T04:16:13;2.47;;;1.65;;
57047;SDS011;42934;54.294;18.598;2023-09-30T04:18:44;4.32;;;1.63;;
57047;SDS011;42934;54.294;18.598;2023-09-30T04:21:13;3.63;;;1.48;;
57047;SDS011;42934;54.294;18.598;2023-09-30T04:23:42;3.33;;;1.40;;
57047;SDS011;42934;54.294;18.598;2023-09-30T04:26:11;2.47;;;1.40;;
57047;SDS011;42934;54.294;18.598;2023-09-30T04:28:40;3.67;;;1.33;;
57047;SDS011;42934;54.294;18.598;2023-09-30T04:31:10;5.15;;;1.27;;
57047;SDS011;42934;54.294;18.598;2023-09-30T04:33:41;2.88;;;1.08;;
57047;SDS011;42934;54.294;18.598;2023-09-30T04:36:11;3.95;;;1.10;;
57047;SDS011;42934;54.294;18.598;2023-09-30T04:38:41;3.92;;;1.40;;
57047;SDS011;42934;54.294;18.598;2023-09-30T04:41:09;4.93;;;1.60;;
57047;SDS011;42934;54.294;18.598;2023-09-30T04:43:39;3.72;;;1.60;;
57047;SDS011;42934;54.294;18.598;2023-09-30T04:46:10;5.78;;;1.50;;
57047;SDS011;42934;54.294;18.598;2023-09-30T04:48:40;11.30;;;2.28;;
57047;SDS011;42934;54.294;18.598;2023-09-30T04:51:10;6.00;;;2.00;;
57047;SDS011;42934;54.294;18.598;2023-09-30T04:53:43;8.45;;;2.08;;
57047;SDS011;42934;54.294;18.598;2023-09-30T04:56:12;8.38;;;2.03;;
57047;SDS011;42934;54.294;18.598;2023-09-30T04:58:41;9.40;;;2.73;;
57047;SDS011;42934;54.294;18.598;2023-09-30T05:01:11;6.43;;;2.30;;
57047;SDS011;42934;54.294;18.598;2023-09-30T05:03:40;9.70;;;2.63;;
57047;SDS011;42934;54.294;18.598;2023-09-30T05:06:12;8.68;;;2.70;;
57047;SDS011;42934;54.294;18.598;2023-09-30T05:08:41;12.77;;;3.08;;
57047;SDS011;42934;54.294;18.598;2023-09-30T05:11:10;9.30;;;2.60;;
57047;SDS011;42934;54.294;18.598;2023-09-30T05:13:39;10.83;;;2.83;;
57047;SDS011;42934;54.294;18.598;2023-09-30T05:16:08;8.73;;;2.25;;
57047;SDS011;42934;54.294;18.598;2023-09-30T05:18:41;9.20;;;2.55;;
57047;SDS011;42934;54.294;18.598;2023-09-30T05:23:40;10.30;;;2.92;;
57047;SDS011;42934;54.294;18.598;2023-09-30T05:26:09;8.32;;;2.60;;
57047;SDS011;42934;54.294;18.598;2023-09-30T05:28:38;10.23;;;2.30;;
57047;SDS011;42934;54.294;18.598;2023-09-30T05:31:08;9.05;;;2.58;;
57047;SDS011;42934;54.294;18.598;2023-09-30T05:33:37;12.95;;;3.15;;
57047;SDS011;42934;54.294;18.598;2023-09-30T05:36:06;10.90;;;2.67;;
57047;SDS011;42934;54.294;18.598;2023-09-30T05:38:37;8.35;;;2.67;;
57047;SDS011;42934;54.294;18.598;2023-09-30T05:41:06;13.70;;;2.95;;
57047;SDS011;42934;54.294;18.598;2023-09-30T05:43:35;12.07;;;2.95;;
57047;SDS011;42934;54.294;18.598;2023-09-30T05:46:05;12.30;;;3.30;;
57047;SDS011;42934;54.294;18.598;2023-09-30T05:48:36;11.70;;;3.40;;
57047;SDS011;42934;54.294;18.598;2023-09-30T05:51:06;11.65;;;2.72;;
57047;SDS011;42934;54.294;18.598;2023-09-30T05:53:37;8.75;;;2.83;;
57047;SDS011;42934;54.294;18.598;2023-09-30T05:58:35;9.90;;;2.95;;
57047;SDS011;42934;54.294;18.598;2023-09-30T06:01:07;12.02;;;3.40;;
57047;SDS011;42934;54.294;18.598;2023-09-30T06:03:39;11.52;;;3.20;;
57047;SDS011;42934;54.294;18.598;2023-09-30T06:06:10;9.98;;;2.92;;
57047;SDS011;42934;54.294;18.598;2023-09-30T06:08:42;12.88;;;3.17;;
57047;SDS011;42934;54.294;18.598;2023-09-30T06:11:15;10.32;;;2.83;;
57047;SDS011;42934;54.294;18.598;2023-09-30T06:13:46;15.07;;;3.30;;
57047;SDS011;42934;54.294;18.598;2023-09-30T06:16:15;8.52;;;3.00;;
57047;SDS011;42934;54.294;18.598;2023-09-30T06:18:45;13.05;;;2.97;;
57047;SDS011;42934;54.294;18.598;2023-09-30T06:21:14;9.93;;;2.88;;
57047;SDS011;42934;54.294;18.598;2023-09-30T06:23:46;9.35;;;2.83;;
57047;SDS011;42934;54.294;18.598;2023-09-30T06:26:15;7.10;;;2.60;;
57047;SDS011;42934;54.294;18.598;2023-09-30T06:28:44;11.20;;;3.00;;
57047;SDS011;42934;54.294;18.598;2023-09-30T06:31:14;17.58;;;3.20;;
57047;SDS011;42934;54.294;18.598;2023-09-30T06:33:44;7.90;;;2.85;;
57047;SDS011;42934;54.294;18.598;2023-09-30T06:36:12;9.50;;;2.70;;
57047;SDS011;42934;54.294;18.598;2023-09-30T06:38:43;11.00;;;2.85;;
57047;SDS011;42934;54.294;18.598;2023-09-30T06:41:15;11.98;;;2.80;;
57047;SDS011;42934;54.294;18.598;2023-09-30T06:46:14;12.30;;;2.80;;
57047;SDS011;42934;54.294;18.598;2023-09-30T06:48:43;6.93;;;2.42;;
57047;SDS011;42934;54.294;18.598;2023-09-30T06:51:13;10.10;;;2.67;;
57047;SDS011;42934;54.294;18.598;2023-09-30T06:53:43;11.30;;;2.80;;
57047;SDS011;42934;54.294;18.598;2023-09-30T06:56:13;12.65;;;2.80;;
57047;SDS011;42934;54.294;18.598;2023-09-30T06:58:42;12.68;;;2.60;;
57047;SDS011;42934;54.294;18.598;2023-09-30T07:01:14;11.57;;;3.35;;
57047;SDS011;42934;54.294;18.598;2023-09-30T07:03:45;11.27;;;2.75;;
57047;SDS011;42934;54.294;18.598;2023-09-30T07:06:21;10.23;;;2.60;;
57047;SDS011;42934;54.294;18.598;2023-09-30T07:08:52;12.50;;;2.75;;
57047;SDS011;42934;54.294;18.598;2023-09-30T07:11:30;12.98;;;2.85;;
57047;SDS011;42934;54.294;18.598;2023-09-30T07:14:00;9.80;;;3.03;;
57047;SDS011;42934;54.294;18.598;2023-09-30T07:16:30;14.63;;;2.95;;
57047;SDS011;42934;54.294;18.598;2023-09-30T07:18:59;9.37;;;2.73;;
57047;SDS011;42934;54.294;18.598;2023-09-30T07:21:29;13.95;;;2.85;;
57047;SDS011;42934;54.294;18.598;2023-09-30T07:24:00;14.07;;;2.70;;
57047;SDS011;42934;54.294;18.598;2023-09-30T07:26:29;7.30;;;2.33;;
57047;SDS011;42934;54.294;18.598;2023-09-30T07:28:58;9.63;;;3.00;;
57047;SDS011;42934;54.294;18.598;2023-09-30T07:31:27;11.43;;;2.85;;
57047;SDS011;42934;54.294;18.598;2023-09-30T07:33:56;12.70;;;2.83;;
57047;SDS011;42934;54.294;18.598;2023-09-30T07:36:25;15.45;;;3.28;;
57047;SDS011;42934;54.294;18.598;2023-09-30T07:38:54;10.55;;;2.65;;
57047;SDS011;42934;54.294;18.598;2023-09-30T07:41:25;10.43;;;2.60;;
57047;SDS011;42934;54.294;18.598;2023-09-30T07:43:54;11.82;;;3.15;;
57047;SDS011;42934;54.294;18.598;2023-09-30T07:46:23;10.73;;;2.80;;
57047;SDS011;42934;54.294;18.598;2023-09-30T07:48:52;11.48;;;2.67;;
57047;SDS011;42934;54.294;18.598;2023-09-30T07:51:22;11.20;;;2.97;;
57047;SDS011;42934;54.294;18.598;2023-09-30T07:53:51;9.40;;;2.73;;
57047;SDS011;42934;54.294;18.598;2023-09-30T07:56:20;10.90;;;3.25;;
57047;SDS011;42934;54.294;18.598;2023-09-30T07:58:51;12.18;;;2.78;;
57047;SDS011;42934;54.294;18.598;2023-09-30T08:01:20;12.30;;;2.90;;
57047;SDS011;42934;54.294;18.598;2023-09-30T08:03:50;11.60;;;2.73;;
57047;SDS011;42934;54.294;18.598;2023-09-30T08:06:19;14.93;;;2.80;;
57047;SDS011;42934;54.294;18.598;2023-09-30T08:08:48;10.43;;;2.88;;
57047;SDS011;42934;54.294;18.598;2023-09-30T08:11:17;10.93;;;2.88;;
57047;SDS011;42934;54.294;18.598;2023-09-30T08:13:47;11.90;;;2.45;;
57047;SDS011;42934;54.294;18.598;2023-09-30T08:16:17;12.38;;;2.40;;
57047;SDS011;42934;54.294;18.598;2023-09-30T08:18:48;8.60;;;2.40;;
57047;SDS011;42934;54.294;18.598;2023-09-30T08:21:17;14.32;;;2.72;;
57047;SDS011;42934;54.294;18.598;2023-09-30T08:23:46;7.70;;;2.10;;
57047;SDS011;42934;54.294;18.598;2023-09-30T08:26:15;9.07;;;2.47;;
57047;SDS011;42934;54.294;18.598;2023-09-30T08:28:44;8.93;;;2.35;;
57047;SDS011;42934;54.294;18.598;2023-09-30T08:31:13;9.77;;;2.17;;
57047;SDS011;42934;54.294;18.598;2023-09-30T08:33:44;8.40;;;2.50;;
57047;SDS011;42934;54.294;18.598;2023-09-30T08:36:13;8.63;;;2.20;;
57047;SDS011;42934;54.294;18.598;2023-09-30T08:38:42;9.05;;;2.17;;
57047;SDS011;42934;54.294;18.598;2023-09-30T08:41:11;7.10;;;1.95;;
57047;SDS011;42934;54.294;18.598;2023-09-30T08:43:59;13.73;;;2.47;;
57047;SDS011;42934;54.294;18.598;2023-09-30T08:46:30;13.95;;;3.13;;
57047;SDS011;42934;54.294;18.598;2023-09-30T08:49:02;11.38;;;2.97;;
57047;SDS011;42934;54.294;18.598;2023-09-30T08:51:32;8.18;;;2.85;;
57047;SDS011;42934;54.294;18.598;2023-09-30T08:54:03;11.70;;;2.78;;
57047;SDS011;42934;54.294;18.598;2023-09-30T08:56:33;14.52;;;2.10;;
57047;SDS011;42934;54.294;18.598;2023-09-30T09:01:32;7.97;;;2.05;;
57047;SDS011;42934;54.294;18.598;2023-09-30T09:04:04;7.15;;;2.08;;
57047;SDS011;42934;54.294;18.598;2023-09-30T09:06:35;7.95;;;2.28;;
57047;SDS011;42934;54.294;18.598;2023-09-30T09:09:12;12.65;;;2.25;;
57047;SDS011;42934;54.294;18.598;2023-09-30T09:11:43;8.68;;;2.30;;
57047;SDS011;42934;54.294;18.598;2023-09-30T09:14:13;13.85;;;2.65;;
57047;SDS011;42934;54.294;18.598;2023-09-30T09:19:33;7.38;;;2.42;;
57047;SDS011;42934;54.294;18.598;2023-09-30T09:22:02;13.45;;;2.10;;
57047;SDS011;42934;54.294;18.598;2023-09-30T09:24:34;6.85;;;2.00;;
57047;SDS011;42934;54.294;18.598;2023-09-30T09:27:06;9.88;;;2.00;;
57047;SDS011;42934;54.294;18.598;2023-09-30T09:29:36;12.50;;;2.40;;
57047;SDS011;42934;54.294;18.598;2023-09-30T09:32:06;8.98;;;1.77;;
57047;SDS011;42934;54.294;18.598;2023-09-30T09:34:39;8.27;;;2.05;;
57047;SDS011;42934;54.294;18.598;2023-09-30T09:37:16;8.70;;;2.00;;
57047;SDS011;42934;54.294;18.598;2023-09-30T09:39:50;8.80;;;2.00;;
57047;SDS011;42934;54.294;18.598;2023-09-30T09:42:26;7.75;;;2.00;;
57047;SDS011;42934;54.294;18.598;2023-09-30T09:44:57;8.70;;;2.17;;
57047;SDS011;42934;54.294;18.598;2023-09-30T09:47:27;13.77;;;1.90;;
57047;SDS011;42934;54.294;18.598;2023-09-30T09:50:02;8.48;;;2.08;;
57047;SDS011;42934;54.294;18.598;2023-09-30T09:52:33;23.50;;;2.72;;
57047;SDS011;42934;54.294;18.598;2023-09-30T09:55:03;11.30;;;2.40;;
57047;SDS011;42934;54.294;18.598;2023-09-30T09:57:34;7.95;;;1.75;;
57047;SDS011;42934;54.294;18.598;2023-09-30T10:00:06;10.57;;;2.35;;
57047;SDS011;42934;54.294;18.598;2023-09-30T10:02:40;10.63;;;1.52;;
57047;SDS011;42934;54.294;18.598;2023-09-30T10:05:11;9.00;;;1.77;;
57047;SDS011;42934;54.294;18.598;2023-09-30T10:07:42;6.53;;;2.00;;
57047;SDS011;42934;54.294;18.598;2023-09-30T10:10:19;8.27;;;1.77;;
57047;SDS011;42934;54.294;18.598;2023-09-30T10:12:49;9.75;;;1.98;;
57047;SDS011;42934;54.294;18.598;2023-09-30T10:15:34;9.43;;;1.92;;
57047;SDS011;42934;54.294;18.598;2023-09-30T10:18:07;9.73;;;2.08;;
57047;SDS011;42934;54.294;18.598;2023-09-30T10:20:43;9.57;;;2.00;;
57047;SDS011;42934;54.294;18.598;2023-09-30T10:23:23;9.63;;;2.13;;
57047;SDS011;42934;54.294;18.598;2023-09-30T10:25:54;8.45;;;1.90;;
57047;SDS011;42934;54.294;18.598;2023-09-30T10:28:44;9.68;;;2.38;;
57047;SDS011;42934;54.294;18.598;2023-09-30T10:31:17;9.18;;;2.25;;
57047;SDS011;42934;54.294;18.598;2023-09-30T10:36:50;9.32;;;1.80;;
57047;SDS011;42934;54.294;18.598;2023-09-30T10:48:35;13.13;;;2.33;;
57047;SDS011;42934;54.294;18.598;2023-09-30T10:51:15;9.02;;;1.85;;
57047;SDS011;42934;54.294;18.598;2023-09-30T10:53:50;7.35;;;2.00;;
57047;SDS011;42934;54.294;18.598;2023-09-30T10:56:23;12.60;;;2.17;;
57047;SDS011;42934;54.294;18.598;2023-09-30T10:59:00;11.15;;;2.10;;
57047;SDS011;42934;54.294;18.598;2023-09-30T11:01:31;8.50;;;2.00;;
57047;SDS011;42934;54.294;18.598;2023-09-30T11:04:02;12.35;;;2.47;;
57047;SDS011;42934;54.294;18.598;2023-09-30T11:06:34;10.07;;;2.33;;
57047;SDS011;42934;54.294;18.598;2023-09-30T11:09:09;10.80;;;2.63;;
57047;SDS011;42934;54.294;18.598;2023-09-30T11:11:44;6.85;;;1.83;;
57047;SDS011;42934;54.294;18.598;2023-09-30T11:14:16;11.98;;;2.42;;
57047;SDS011;42934;54.294;18.598;2023-09-30T11:16:53;17.08;;;2.47;;
57047;SDS011;42934;54.294;18.598;2023-09-30T11:19:24;16.70;;;2.60;;
57047;SDS011;42934;54.294;18.598;2023-09-30T11:21:54;11.38;;;2.40;;
57047;SDS011;42934;54.294;18.598;2023-09-30T11:24:27;13.20;;;2.00;;
57047;SDS011;42934;54.294;18.598;2023-09-30T11:26:56;12.57;;;2.50;;
57047;SDS011;42934;54.294;18.598;2023-09-30T11:29:25;12.60;;;2.53;;
57047;SDS011;42934;54.294;18.598;2023-09-30T11:31:54;10.57;;;2.28;;
57047;SDS011;42934;54.294;18.598;2023-09-30T11:34:31;10.68;;;2.30;;
57047;SDS011;42934;54.294;18.598;2023-09-30T11:37:01;8.38;;;2.08;;
57047;SDS011;42934;54.294;18.598;2023-09-30T11:39:32;9.40;;;2.10;;
57047;SDS011;42934;54.294;18.598;2023-09-30T11:42:01;7.15;;;2.08;;
57047;SDS011;42934;54.294;18.598;2023-09-30T11:44:44;9.02;;;2.17;;
57047;SDS011;42934;54.294;18.598;2023-09-30T11:47:14;10.32;;;2.35;;
57047;SDS011;42934;54.294;18.598;2023-09-30T11:49:43;8.25;;;2.10;;
57047;SDS011;42934;54.294;18.598;2023-09-30T11:52:25;10.48;;;2.55;;
57047;SDS011;42934;54.294;18.598;2023-09-30T11:54:57;10.90;;;2.92;;
57047;SDS011;42934;54.294;18.598;2023-09-30T11:57:27;8.05;;;2.35;;
57047;SDS011;42934;54.294;18.598;2023-09-30T11:59:57;11.00;;;2.15;;
57047;SDS011;42934;54.294;18.598;2023-09-30T12:02:26;14.10;;;2.30;;
57047;SDS011;42934;54.294;18.598;2023-09-30T12:04:55;9.40;;;2.35;;
57047;SDS011;42934;54.294;18.598;2023-09-30T12:07:24;8.98;;;1.83;;
57047;SDS011;42934;54.294;18.598;2023-09-30T12:09:53;7.40;;;1.85;;
57047;SDS011;42934;54.294;18.598;2023-09-30T12:12:24;7.93;;;2.10;;
57047;SDS011;42934;54.294;18.598;2023-09-30T12:14:53;7.68;;;2.05;;
57047;SDS011;42934;54.294;18.598;2023-09-30T12:17:22;9.23;;;2.38;;
57047;SDS011;42934;54.294;18.598;2023-09-30T12:19:51;9.25;;;2.33;;
57047;SDS011;42934;54.294;18.598;2023-09-30T12:22:20;7.97;;;1.83;;
57047;SDS011;42934;54.294;18.598;2023-09-30T12:24:49;7.33;;;2.03;;
57047;SDS011;42934;54.294;18.598;2023-09-30T12:27:18;8.25;;;2.00;;
57047;SDS011;42934;54.294;18.598;2023-09-30T12:29:49;7.30;;;1.87;;
57047;SDS011;42934;54.294;18.598;2023-09-30T12:32:18;6.78;;;1.98;;
57047;SDS011;42934;54.294;18.598;2023-09-30T12:34:47;9.70;;;2.05;;
57047;SDS011;42934;54.294;18.598;2023-09-30T12:37:17;7.18;;;2.13;;
57047;SDS011;42934;54.294;18.598;2023-09-30T12:39:46;13.07;;;2.47;;
57047;SDS011;42934;54.294;18.598;2023-09-30T12:42:15;6.20;;;1.60;;
57047;SDS011;42934;54.294;18.598;2023-09-30T12:44:44;8.15;;;1.90;;
57047;SDS011;42934;54.294;18.598;2023-09-30T12:47:14;8.32;;;2.00;;
57047;SDS011;42934;54.294;18.598;2023-09-30T12:49:44;10.05;;;2.05;;
57047;SDS011;42934;54.294;18.598;2023-09-30T12:52:12;7.38;;;1.88;;
57047;SDS011;42934;54.294;18.598;2023-09-30T12:54:41;7.83;;;2.30;;
57047;SDS011;42934;54.294;18.598;2023-09-30T12:57:10;10.48;;;2.22;;
57047;SDS011;42934;54.294;18.598;2023-09-30T12:59:42;8.65;;;2.17;;
57047;SDS011;42934;54.294;18.598;2023-09-30T13:02:12;8.35;;;2.05;;
57047;SDS011;42934;54.294;18.598;2023-09-30T13:04:45;12.95;;;2.03;;
57047;SDS011;42934;54.294;18.598;2023-09-30T13:09:44;7.38;;;1.98;;
57047;SDS011;42934;54.294;18.598;2023-09-30T13:12:13;9.65;;;2.20;;
57047;SDS011;42934;54.294;18.598;2023-09-30T13:17:11;6.40;;;2.03;;
57047;SDS011;42934;54.294;18.598;2023-09-30T13:19:42;5.90;;;1.70;;
57047;SDS011;42934;54.294;18.598;2023-09-30T13:22:11;7.32;;;2.20;;
57047;SDS011;42934;54.294;18.598;2023-09-30T13:24:45;7.53;;;1.90;;
57047;SDS011;42934;54.294;18.598;2023-09-30T13:27:14;7.90;;;2.30;;
57047;SDS011;42934;54.294;18.598;2023-09-30T13:29:44;7.38;;;2.08;;
57047;SDS011;42934;54.294;18.598;2023-09-30T13:32:13;12.57;;;2.35;;
57047;SDS011;42934;54.294;18.598;2023-09-30T13:34:43;7.88;;;1.95;;
57047;SDS011;42934;54.294;18.598;2023-09-30T13:37:12;8.57;;;1.90;;
57047;SDS011;42934;54.294;18.598;2023-09-30T13:39:41;5.95;;;2.20;;
57047;SDS011;42934;54.294;18.598;2023-09-30T13:42:10;6.10;;;1.92;;
57047;SDS011;42934;54.294;18.598;2023-09-30T13:44:39;6.43;;;2.10;;
57047;SDS011;42934;54.294;18.598;2023-09-30T13:47:08;8.63;;;2.13;;
57047;SDS011;42934;54.294;18.598;2023-09-30T13:49:37;9.88;;;2.50;;
57047;SDS011;42934;54.294;18.598;2023-09-30T13:52:07;9.90;;;3.03;;
57047;SDS011;42934;54.294;18.598;2023-09-30T13:54:36;12.57;;;2.58;;
57047;SDS011;42934;54.294;18.598;2023-09-30T13:57:05;12.43;;;2.53;;
57047;SDS011;42934;54.294;18.598;2023-09-30T13:59:34;8.63;;;2.60;;
57047;SDS011;42934;54.294;18.598;2023-09-30T14:02:03;9.05;;;2.47;;
57047;SDS011;42934;54.294;18.598;2023-09-30T14:04:33;8.35;;;2.20;;
57047;SDS011;42934;54.294;18.598;2023-09-30T14:07:03;11.50;;;2.33;;
57047;SDS011;42934;54.294;18.598;2023-09-30T14:09:36;10.93;;;2.30;;
57047;SDS011;42934;54.294;18.598;2023-09-30T14:12:05;12.15;;;2.25;;
57047;SDS011;42934;54.294;18.598;2023-09-30T14:14:34;9.98;;;2.30;;
57047;SDS011;42934;54.294;18.598;2023-09-30T14:17:03;8.70;;;2.25;;
57047;SDS011;42934;54.294;18.598;2023-09-30T14:19:34;11.80;;;2.45;;
57047;SDS011;42934;54.294;18.598;2023-09-30T14:22:03;8.93;;;2.08;;
57047;SDS011;42934;54.294;18.598;2023-09-30T14:24:33;10.55;;;1.90;;
57047;SDS011;42934;54.294;18.598;2023-09-30T14:27:04;8.50;;;1.80;;
57047;SDS011;42934;54.294;18.598;2023-09-30T14:29:34;10.32;;;2.38;;
57047;SDS011;42934;54.294;18.598;2023-09-30T14:32:03;8.10;;;2.30;;
57047;SDS011;42934;54.294;18.598;2023-09-30T14:34:33;12.13;;;2.70;;
57047;SDS011;42934;54.294;18.598;2023-09-30T14:37:01;6.70;;;1.88;;
57047;SDS011;42934;54.294;18.598;2023-09-30T14:39:31;10.25;;;2.10;;
57047;SDS011;42934;54.294;18.598;2023-09-30T14:42:00;8.82;;;2.10;;
57047;SDS011;42934;54.294;18.598;2023-09-30T14:44:30;9.30;;;1.77;;
57047;SDS011;42934;54.294;18.598;2023-09-30T14:47:00;10.38;;;2.38;;
57047;SDS011;42934;54.294;18.598;2023-09-30T14:49:30;6.15;;;1.75;;
57047;SDS011;42934;54.294;18.598;2023-09-30T14:51:59;11.73;;;2.35;;
57047;SDS011;42934;54.294;18.598;2023-09-30T14:54:30;9.45;;;2.03;;
57047;SDS011;42934;54.294;18.598;2023-09-30T14:56:59;10.70;;;2.00;;
57047;SDS011;42934;54.294;18.598;2023-09-30T14:59:28;10.10;;;2.22;;
57047;SDS011;42934;54.294;18.598;2023-09-30T15:02:01;10.82;;;2.40;;
57047;SDS011;42934;54.294;18.598;2023-09-30T15:04:30;8.23;;;2.03;;
57047;SDS011;42934;54.294;18.598;2023-09-30T15:07:00;10.97;;;2.10;;
57047;SDS011;42934;54.294;18.598;2023-09-30T15:09:29;11.15;;;2.28;;
57047;SDS011;42934;54.294;18.598;2023-09-30T15:11:58;7.85;;;2.22;;
57047;SDS011;42934;54.294;18.598;2023-09-30T15:14:27;7.28;;;2.35;;
57047;SDS011;42934;54.294;18.598;2023-09-30T15:16:58;7.47;;;2.00;;
57047;SDS011;42934;54.294;18.598;2023-09-30T15:19:27;11.80;;;2.45;;
57047;SDS011;42934;54.294;18.598;2023-09-30T15:21:56;8.00;;;2.10;;